SBPB/PHB METAR and TAF weather

Enter ICAO airport designator
Station Type Date Time Source
SBPB METAR 2024/06/15 21:45 UTC NOAA

SBPB 152145Z 06008KT 9999 FEW020 FEW025TCU 29/24 Q1012


Station Type Date Time Source
SBPB Decoded METAR 2024/06/15 21:45 UTC NOAA

Parnaiba Aeroporto , Brazil (SBPB) 02-55S 041-45W
Jun 15, 2024 - 05:45 PM EDT / 2024.06.15 2145 UTC
Wind: from the ENE (060 degrees) at 9 MPH (8 KT):0
Visibility: greater than 7 mile(s):0
Sky conditions: mostly clear
Weather: Towering cumulus clouds observed
Temperature: 84 F (29 C)
Dew Point: 75 F (24 C)
Relative Humidity: 74%
Pressure (altimeter): 29.88 in. Hg (1012 hPa)
ob: SBPB 152145Z 06008KT 9999 FEW020 FEW025TCU 29/24 Q1012
cycle: 22

Station Type Date Time Source
SBPB TAF 2024/06/15 18:06 UTC NOAA